Historie AUP a zpráv METAR Praha-Ruzyně z 12:00 UTC

Datum: 17-05-2018 / Vyber datum:
LKPR 171200Z 31011KT 270V330 9999 BKN016 15/11 Q1014 NOSIG
Prostor Spodní hranice Horní hranice Od Do
TRA12 GND 5000FT/AMSL 16:30 22:30
TRA13 GND F125 07:00 13:00
TRA14 GND F125 07:00 13:00
TRA15 300FT/AGL F125 07:00 13:00
TRA56 1000FT/AGL F125 07:00 20:00
TRA57 3000FT/AMSL F125 07:00 20:00
TRA6 GND F095 07:00 14:00
TRA61 GND 3000FT/AMSL 07:00 13:00
TRA62 3000FT/AMSL F245 07:00 13:00
TRA71 GND 1000FT/AGL 07:00 18:42
TRA73 GND 1000FT/AGL 07:00 18:42
TRA76 1000FT/AGL F075 07:00 13:00
TRA77 1000FT/AGL F245 07:00 13:00
TRA78 1000FT/AGL F245 07:00 13:00
TRA79 F075 F245 07:00 13:00
TSA1 GND F285 07:00 20:00
TSA2A GND F125 06:00 15:10
TSA2B GND F205 06:00 22:10
TSA20 300FT/AGL 1000FT/AGL 07:00 13:00
TSA21 300FT/AGL 1000FT/AGL 07:00 13:00
TSA24 300FT/AGL 1000FT/AGL 08:00 10:00
TSA26 300FT/AGL 1000FT/AGL 07:00 13:00
TSA27 300FT/AGL 1000FT/AGL 07:00 13:00
TSA3 GND F195 08:00 10:00
TSA3A GND F065 07:00 13:30
TSA5B GND F135 07:00 14:00